Time;durP1;ratioP1;P1;durP2;ratioP2;P2;SDS_P1;SDS_P2;PMS_P1;PMS_P2;Temp;Humidity;BMP_temperature;BMP_pressure;BME280_temperature;BME280_humidity;BME280_pressure;Samples;Min_cycle;Max_cycle;Signal;HPM_P1;HPM_P2
2021/04/17 00:02:20;;;;;;;3.20;2.87;;;;;;;7.20;100.00;95175.69;5073994;28;20193;-87
2021/04/17 00:04:49;;;;;;;4.87;3.67;;;;;;;7.01;100.00;95273.53;5075377;28;20225;-86
2021/04/17 00:07:17;;;;;;;5.50;3.93;;;;;;;6.96;100.00;95356.75;5074643;28;20198;-87
2021/04/17 00:09:44;;;;;;;3.97;3.57;;;;;;;6.80;100.00;95362.75;5074813;28;20250;-87
2021/04/17 00:12:15;;;;;;;3.83;3.43;;;;;;;6.81;100.00;95395.72;5075084;28;20252;-86
2021/04/17 00:14:43;;;;;;;6.83;3.60;;;;;;;6.85;100.00;95397.06;5074665;28;20677;-87
2021/04/17 00:17:10;;;;;;;6.07;5.47;;;;;;;6.77;100.00;95363.88;5074469;28;20288;-87
2021/04/17 00:19:38;;;;;;;7.73;4.97;;;;;;;6.68;100.00;95370.03;5074497;28;20241;-87
2021/04/17 00:22:05;;;;;;;28.17;16.83;;;;;;;6.67;100.00;95366.63;5074577;28;20641;-87
2021/04/17 00:24:33;;;;;;;18.63;11.97;;;;;;;6.64;100.00;95373.94;5074834;28;20682;-88
2021/04/17 00:27:01;;;;;;;23.57;13.10;;;;;;;6.43;100.00;95348.22;5074903;28;20207;-88
2021/04/17 00:29:29;;;;;;;14.17;9.27;;;;;;;6.35;100.00;95354.22;5074907;28;20623;-88
2021/04/17 00:31:56;;;;;;;10.83;7.53;;;;;;;6.39;100.00;95339.88;5073675;28;20275;-87
2021/04/17 00:34:23;;;;;;;8.60;6.30;;;;;;;6.26;100.00;95309.97;5074375;28;20263;-87
2021/04/17 00:36:50;;;;;;;7.33;5.13;;;;;;;6.26;100.00;95336.88;5074758;28;20576;-87
2021/04/17 00:39:17;;;;;;;7.93;5.37;;;;;;;6.21;100.00;95330.50;5074573;28;20375;-86
2021/04/17 00:41:44;;;;;;;4.87;4.47;;;;;;;6.28;100.00;95342.78;5074670;28;20576;-88
2021/04/17 00:44:11;;;;;;;4.70;4.30;;;;;;;6.30;100.00;95340.00;5074497;28;20284;-88
2021/04/17 00:46:39;;;;;;;5.37;4.87;;;;;;;6.22;100.00;95342.56;5074036;28;20201;-87
2021/04/17 00:49:07;;;;;;;5.87;4.97;;;;;;;6.24;100.00;95351.88;5073888;28;20197;-85
2021/04/17 00:51:34;;;;;;;6.07;4.97;;;;;;;6.29;100.00;95348.81;5073890;28;20197;-86
2021/04/17 00:54:01;;;;;;;5.40;5.00;;;;;;;6.15;100.00;95356.22;5073799;28;20240;-86
2021/04/17 00:56:28;;;;;;;4.77;4.37;;;;;;;6.23;100.00;95363.28;5073531;28;20198;-86
2021/04/17 00:58:54;;;;;;;5.03;4.53;;;;;;;6.18;100.00;95366.34;5073662;28;20197;-86
2021/04/17 01:01:22;;;;;;;6.53;5.03;;;;;;;6.21;100.00;95380.09;5073677;28;20197;-85
2021/04/17 01:03:56;;;;;;;6.50;4.67;;;;;;;6.12;100.00;95387.84;5073455;28;20233;-85
2021/04/17 01:06:28;;;;;;;6.37;4.73;;;;;;;6.11;100.00;95450.63;5073599;28;20221;-86
2021/04/17 01:09:03;;;;;;;8.07;4.87;;;;;;;6.18;100.00;95467.31;5073840;28;20565;-85
2021/04/17 01:11:37;;;;;;;4.37;3.97;;;;;;;6.29;100.00;95474.06;5073403;28;20276;-85
2021/04/17 01:14:04;;;;;;;5.97;5.27;;;;;;;6.24;100.00;95487.56;5072238;28;20209;-86
2021/04/17 01:16:32;;;;;;;5.03;4.57;;;;;;;6.19;100.00;95581.13;5073647;28;20224;-86
2021/04/17 01:19:02;;;;;;;6.20;5.40;;;;;;;6.25;100.00;95916.38;5073209;28;20292;-85
2021/04/17 01:21:31;;;;;;;7.20;6.03;;;;;;;6.24;100.00;96016.50;5053100;28;20293;-85
2021/04/17 01:24:03;;;;;;;7.70;5.63;;;;;;;6.27;100.00;96034.47;5053193;28;20670;-86
2021/04/17 01:26:32;;;;;;;6.43;5.83;;;;;;;6.27;100.00;96058.81;5053131;28;20702;-86
2021/04/17 01:28:59;;;;;;;5.87;5.37;;;;;;;6.29;100.00;96059.47;5053109;28;20202;-85
2021/04/17 01:31:28;;;;;;;5.43;4.90;;;;;;;6.31;100.00;96035.88;5053145;28;20190;-86
2021/04/17 01:33:57;;;;;;;5.83;5.20;;;;;;;6.27;100.00;96047.53;5052997;28;20233;-86
2021/04/17 01:36:26;;;;;;;5.77;5.27;;;;;;;6.27;100.00;96056.22;5053024;28;20280;-86
2021/04/17 01:38:55;;;;;;;5.47;5.07;;;;;;;6.23;100.00;96060.03;5053074;28;20198;-86
2021/04/17 01:41:27;;;;;;;6.23;5.70;;;;;;;6.14;100.00;96019.13;5052952;28;20568;-85
2021/04/17 01:43:57;;;;;;;5.87;5.37;;;;;;;6.13;100.00;96038.31;5052872;28;20243;-86
2021/04/17 01:46:29;;;;;;;6.20;5.17;;;;;;;6.29;100.00;96059.47;5053026;28;20197;-87
2021/04/17 01:48:58;;;;;;;5.77;5.23;;;;;;;6.18;100.00;96002.22;5053380;28;20232;-87
2021/04/17 01:51:26;;;;;;;7.60;5.80;;;;;;;6.18;100.00;96016.09;5053081;28;20702;-87
2021/04/17 01:53:55;;;;;;;5.07;4.53;;;;;;;6.14;100.00;96009.50;5053094;28;20280;-87
2021/04/17 01:56:23;;;;;;;6.20;5.60;;;;;;;6.24;100.00;96004.28;5052763;28;20284;-87
2021/04/17 01:58:50;;;;;;;4.77;4.37;;;;;;;6.21;100.00;96012.38;5052722;28;20670;-87
2021/04/17 02:01:20;;;;;;;5.97;5.40;;;;;;;6.27;100.00;95993.56;5052761;28;20194;-87
2021/04/17 02:03:47;;;;;;;5.13;4.73;;;;;;;6.13;100.00;95991.34;5052558;28;20237;-86
2021/04/17 02:06:14;;;;;;;10.17;6.40;;;;;;;6.22;100.00;96013.19;5052689;28;20194;-86
2021/04/17 02:08:42;;;;;;;16.10;10.77;;;;;;;6.23;100.00;96067.84;5053116;28;20606;-86
2021/04/17 02:11:08;;;;;;;18.13;11.13;;;;;;;6.36;100.00;96078.84;5052046;28;20288;-85
2021/04/17 02:13:36;;;;;;;13.50;9.40;;;;;;;6.26;100.00;96070.19;5052409;28;20221;-86
2021/04/17 02:16:07;;;;;;;17.47;10.83;;;;;;;6.29;100.00;96124.75;5052722;28;20577;-85
2021/04/17 02:18:47;;;;;;;7.73;6.97;;;;;;;6.16;100.00;96143.25;5052118;28;20190;-86
2021/04/17 02:21:20;;;;;;;7.77;6.67;;;;;;;6.08;100.00;96187.47;5070266;28;20231;-87
2021/04/17 02:23:48;;;;;;;5.70;5.17;;;;;;;6.17;100.00;96212.78;5072271;28;20642;-86
2021/04/17 02:26:15;;;;;;;7.03;6.13;;;;;;;6.11;100.00;96280.31;5071885;28;20242;-85
2021/04/17 02:28:42;;;;;;;7.80;7.03;;;;;;;6.06;100.00;96335.50;5072371;28;20639;-86
2021/04/17 02:31:09;;;;;;;6.00;5.50;;;;;;;6.03;100.00;96301.84;5072221;28;20289;-85
2021/04/17 02:33:37;;;;;;;7.40;6.70;;;;;;;5.93;100.00;96311.41;5071739;28;20227;-86
2021/04/17 02:36:05;;;;;;;8.10;7.23;;;;;;;5.94;100.00;96300.81;5071883;28;20235;-86
2021/04/17 02:38:32;;;;;;;7.33;5.93;;;;;;;5.85;100.00;96279.88;5072065;28;20240;-85
2021/04/17 02:40:59;;;;;;;6.57;5.97;;;;;;;5.77;100.00;96272.69;5072240;28;20622;-85
2021/04/17 02:43:26;;;;;;;6.37;5.87;;;;;;;5.85;100.00;96287.69;5071802;28;20704;-86
2021/04/17 02:45:53;;;;;;;6.17;5.67;;;;;;;5.85;100.00;96241.56;5071954;28;20201;-86
2021/04/17 02:48:19;;;;;;;6.23;5.17;;;;;;;5.80;100.00;96282.06;5072011;28;20695;-86
2021/04/17 02:50:47;;;;;;;6.67;5.97;;;;;;;5.83;100.00;96242.66;5072379;28;20199;-86
2021/04/17 02:53:14;;;;;;;6.87;6.17;;;;;;;5.85;100.00;96225.09;5071827;28;20225;-86
2021/04/17 02:55:41;;;;;;;7.87;5.57;;;;;;;5.97;100.00;96155.44;5072081;28;20185;-86
2021/04/17 02:58:08;;;;;;;8.70;6.23;;;;;;;5.96;100.00;96115.50;5072206;28;20203;-86
2021/04/17 03:00:35;;;;;;;10.90;6.70;;;;;;;5.91;100.00;96055.03;5071952;28;20236;-86
2021/04/17 03:03:02;;;;;;;7.50;6.40;;;;;;;5.94;100.00;96041.75;5071974;28;20201;-86
2021/04/17 03:05:28;;;;;;;6.77;6.17;;;;;;;6.03;100.00;96001.81;5072003;28;20192;-86
2021/04/17 03:07:56;;;;;;;6.70;6.10;;;;;;;6.05;100.00;95999.88;5071775;28;20254;-86
2021/04/17 03:10:23;;;;;;;6.17;5.67;;;;;;;6.06;100.00;95964.16;5071665;28;20207;-87
2021/04/17 03:12:50;;;;;;;8.03;6.60;;;;;;;6.14;100.00;95938.22;5071722;28;20232;-87
2021/04/17 03:15:17;;;;;;;6.50;5.83;;;;;;;6.17;100.00;95954.44;5072057;28;20201;-87
2021/04/17 03:17:44;;;;;;;9.87;6.60;;;;;;;6.26;100.00;95924.03;5071616;28;20267;-87
2021/04/17 03:20:12;;;;;;;6.73;6.13;;;;;;;6.21;100.00;95943.72;5071797;28;20233;-87
2021/04/17 03:22:39;;;;;;;6.07;5.57;;;;;;;6.11;100.00;95912.41;5071796;28;20240;-86
2021/04/17 03:25:10;;;;;;;7.13;6.50;;;;;;;6.07;100.00;95887.56;5072059;28;20193;-87
2021/04/17 03:27:37;;;;;;;6.40;5.80;;;;;;;6.14;100.00;95863.38;5071492;28;20192;-86
2021/04/17 03:30:07;;;;;;;6.67;6.07;;;;;;;6.22;100.00;95880.94;5071770;28;20240;-87
2021/04/17 03:32:33;;;;;;;5.83;5.27;;;;;;;6.14;100.00;95896.47;5071523;28;20244;-87
2021/04/17 03:35:00;;;;;;;6.57;5.20;;;;;;;6.26;100.00;95865.81;5071730;28;20228;-87
2021/04/17 03:37:28;;;;;;;5.80;5.30;;;;;;;6.22;100.00;95841.78;5073644;28;20201;-86
2021/04/17 03:39:55;;;;;;;6.97;5.87;;;;;;;6.33;100.00;95869.50;5075248;28;20233;-87
2021/04/17 03:42:22;;;;;;;9.10;6.20;;;;;;;6.24;100.00;95894.66;5075668;28;20197;-87
2021/04/17 03:44:49;;;;;;;11.73;9.30;;;;;;;6.15;100.00;95919.81;5075763;28;20298;-88
2021/04/17 03:47:16;;;;;;;16.00;13.00;;;;;;;6.02;100.00;96038.47;5075503;28;20246;-87
2021/04/17 03:49:43;;;;;;;10.83;9.03;;;;;;;5.83;100.00;96141.78;5075674;28;20232;-88
2021/04/17 03:52:10;;;;;;;7.73;7.00;;;;;;;5.90;100.00;96286.38;5075375;28;20204;-87
2021/04/17 03:54:37;;;;;;;8.03;7.23;;;;;;;5.92;100.00;96395.78;5075385;28;20697;-88
2021/04/17 03:57:04;;;;;;;9.37;8.53;;;;;;;5.81;100.00;96494.97;5075332;28;20200;-88
2021/04/17 03:59:32;;;;;;;8.17;7.37;;;;;;;5.60;100.00;96584.38;5075869;28;20233;-89
2021/04/17 04:01:59;;;;;;;10.70;9.43;;;;;;;5.58;100.00;96668.91;5075717;28;20197;-89
2021/04/17 04:04:26;;;;;;;16.37;12.70;;;;;;;5.76;100.00;96682.31;5075288;28;20229;-91
2021/04/17 04:06:53;;;;;;;19.33;11.63;;;;;;;5.79;100.00;96695.94;5075448;28;20756;-90
2021/04/17 04:09:20;;;;;;;15.90;13.30;;;;;;;5.84;100.00;96672.09;5075607;28;20676;-90
2021/04/17 04:11:46;;;;;;;13.93;12.23;;;;;;;5.71;100.00;96680.03;5075370;28;20197;-88
2021/04/17 04:14:13;;;;;;;11.50;10.37;;;;;;;5.72;100.00;96713.00;5075260;28;20221;-89
2021/04/17 04:16:41;;;;;;;12.80;11.50;;;;;;;5.72;100.00;96762.56;5075299;28;20189;-88
2021/04/17 04:19:08;;;;;;;9.73;8.77;;;;;;;5.67;100.00;96794.19;5074849;28;20291;-88
2021/04/17 04:21:35;;;;;;;8.70;7.90;;;;;;;5.64;100.00;96817.06;5075717;28;20189;-87
2021/04/17 04:24:01;;;;;;;8.87;8.03;;;;;;;5.65;100.00;96810.91;5074913;28;20232;-86
2021/04/17 04:26:28;;;;;;;12.13;10.93;;;;;;;5.75;100.00;96818.84;5075489;28;20681;-89
2021/04/17 04:28:55;;;;;;;18.50;14.63;;;;;;;5.76;100.00;96821.38;5074944;28;20288;-89
2021/04/17 04:31:22;;;;;;;19.57;15.37;;;;;;;5.78;100.00;96842.09;5075001;28;20284;-90
2021/04/17 04:33:50;;;;;;;11.43;10.17;;;;;;;5.85;100.00;96875.44;5074739;28;20260;-90
2021/04/17 04:36:16;;;;;;;12.83;11.47;;;;;;;5.99;100.00;96897.91;5075005;28;20211;-89
2021/04/17 04:38:43;;;;;;;9.13;8.20;;;;;;;6.02;100.00;96899.47;5075014;28;20331;-90
2021/04/17 04:41:10;;;;;;;8.27;7.57;;;;;;;5.99;100.00;96889.25;5074800;28;20197;-90
2021/04/17 04:43:37;;;;;;;10.67;8.43;;;;;;;6.00;100.00;96881.34;5074817;28;20669;-92
2021/04/17 04:46:04;;;;;;;12.17;10.20;;;;;;;5.97;100.00;96912.06;5074966;28;20201;-91
2021/04/17 04:48:31;;;;;;;12.97;10.63;;;;;;;5.92;100.00;96910.63;5074498;28;20771;-91
2021/04/17 04:50:59;;;;;;;14.47;12.20;;;;;;;5.94;100.00;96960.88;5074627;28;20197;-91
2021/04/17 04:53:26;;;;;;;21.83;15.40;;;;;;;5.79;100.00;97031.59;5074578;28;20225;-92
2021/04/17 04:55:53;;;;;;;24.63;15.87;;;;;;;5.76;100.00;97071.78;5074670;28;20257;-91
2021/04/17 04:58:19;;;;;;;13.33;11.93;;;;;;;5.83;100.00;97096.47;5074550;28;20240;-92
2021/04/17 05:00:46;;;;;;;13.27;10.40;;;;;;;5.82;100.00;97136.56;5069849;28;20298;-93
2021/04/17 05:03:13;;;;;;;10.57;9.10;;;;;;;5.82;100.00;97149.59;5070914;28;20207;-90
2021/04/17 05:05:40;;;;;;;10.83;9.03;;;;;;;5.61;100.00;97151.94;5055759;28;20320;-87
2021/04/17 05:08:08;;;;;;;10.60;9.60;;;;;;;5.73;100.00;97218.88;5053852;28;20198;-87
2021/04/17 05:10:35;;;;;;;12.17;10.77;;;;;;;5.70;100.00;97245.16;5053789;28;20194;-85
2021/04/17 05:13:01;;;;;;;12.10;10.90;;;;;;;5.79;100.00;97267.22;5053509;28;20205;-86
2021/04/17 05:15:28;;;;;;;11.70;10.60;;;;;;;5.85;100.00;97286.81;5054155;28;20244;-90
2021/04/17 05:17:55;;;;;;;10.20;9.20;;;;;;;5.85;100.00;97324.16;5054150;28;20244;-90
2021/04/17 05:20:22;;;;;;;10.70;9.60;;;;;;;5.87;100.00;97377.09;5054030;28;20740;-91
2021/04/17 05:22:49;;;;;;;10.60;9.50;;;;;;;6.04;100.00;97432.56;5053939;28;20197;-90
2021/04/17 05:25:17;;;;;;;13.43;10.10;;;;;;;6.06;100.00;97456.78;5054053;28;20252;-90
2021/04/17 05:27:43;;;;;;;11.57;9.47;;;;;;;6.01;100.00;97660.66;5054000;28;20243;-89
2021/04/17 05:30:11;;;;;;;13.77;10.97;;;;;;;6.05;100.00;97823.97;5054218;28;20252;-88
2021/04/17 05:32:40;;;;;;;11.47;10.27;;;;;;;6.12;100.00;97910.59;5072310;28;20732;-88
2021/04/17 05:35:09;;;;;;;10.37;8.97;;;;;;;6.07;100.00;98004.84;5073825;28;20221;-90
2021/04/17 05:37:36;;;;;;;9.73;8.70;;;;;;;6.07;100.00;98054.44;5073476;28;20734;-89
2021/04/17 05:40:03;;;;;;;13.77;10.43;;;;;;;6.02;100.00;98092.16;5073584;28;20203;-91
2021/04/17 05:42:31;;;;;;;10.83;9.27;;;;;;;6.01;100.00;98121.81;5070197;28;20193;-87
2021/04/17 05:44:58;;;;;;;9.87;8.97;;;;;;;6.21;100.00;98165.94;5059461;28;20213;-88
2021/04/17 05:47:25;;;;;;;12.90;9.93;;;;;;;6.30;100.00;98188.06;5052510;28;20223;-87
2021/04/17 05:49:51;;;;;;;9.17;8.17;;;;;;;5.97;100.00;98167.28;5053218;28;20198;-90
2021/04/17 05:52:18;;;;;;;10.93;9.60;;;;;;;6.02;100.00;98162.63;5068737;28;20204;-87
2021/04/17 05:54:46;;;;;;;9.40;8.60;;;;;;;5.99;100.00;98152.34;5072772;28;20363;-88
2021/04/17 05:57:12;;;;;;;11.67;10.43;;;;;;;6.00;100.00;98170.56;5073090;28;20292;-88
2021/04/17 05:59:40;;;;;;;27.33;18.67;;;;;;;5.96;100.00;98192.53;5072779;28;20581;-85
2021/04/17 06:02:07;;;;;;;31.43;20.27;;;;;;;5.97;100.00;98168.13;5072068;28;20662;-85
2021/04/17 06:04:34;;;;;;;49.93;31.17;;;;;;;6.15;100.00;98163.66;5072375;28;20293;-85
2021/04/17 06:07:01;;;;;;;58.40;32.40;;;;;;;6.21;100.00;98137.22;5072850;28;20201;-89
2021/04/17 06:09:28;;;;;;;30.83;22.70;;;;;;;6.16;100.00;98085.22;5073297;28;20236;-89
2021/04/17 06:11:56;;;;;;;15.23;13.57;;;;;;;6.18;100.00;98048.59;5072740;28;20227;-89
2021/04/17 06:14:23;;;;;;;14.63;13.13;;;;;;;6.14;100.00;97987.88;5073196;28;20240;-89
2021/04/17 06:16:50;;;;;;;11.47;10.37;;;;;;;6.24;100.00;97924.69;5073259;28;20211;-89
2021/04/17 06:19:20;;;;;;;10.93;9.83;;;;;;;6.22;100.00;97872.56;5078738;28;20208;-90
2021/04/17 06:21:46;;;;;;;8.57;7.77;;;;;;;6.20;100.00;97822.22;5082694;28;20189;-89
2021/04/17 06:24:13;;;;;;;9.53;8.63;;;;;;;6.09;100.00;97772.41;5072978;28;20196;-89
2021/04/17 06:26:41;;;;;;;10.93;9.63;;;;;;;6.23;100.00;97769.78;5073059;28;20662;-90
2021/04/17 06:29:08;;;;;;;8.43;7.50;;;;;;;6.30;100.00;97731.91;5073217;28;20311;-89
2021/04/17 06:31:35;;;;;;;10.77;9.17;;;;;;;6.26;100.00;97714.78;5072816;28;20189;-90
2021/04/17 06:34:03;;;;;;;13.10;9.07;;;;;;;6.27;100.00;97681.66;5072637;28;20365;-90
2021/04/17 06:36:29;;;;;;;11.60;9.47;;;;;;;6.33;100.00;97645.56;5071955;28;20280;-88
2021/04/17 06:38:56;;;;;;;8.90;8.00;;;;;;;6.31;100.00;97590.00;5052723;28;20289;-88
2021/04/17 06:41:24;;;;;;;8.07;7.37;;;;;;;6.26;100.00;97586.00;5052842;28;20239;-89
2021/04/17 06:43:52;;;;;;;7.93;6.90;;;;;;;6.36;100.00;97574.03;5052871;28;20194;-89
2021/04/17 06:46:20;;;;;;;10.77;9.07;;;;;;;6.48;100.00;97556.69;5052927;28;20256;-89
2021/04/17 06:48:48;;;;;;;12.57;9.83;;;;;;;6.49;100.00;97558.41;5054393;28;20235;-88
2021/04/17 06:51:17;;;;;;;12.30;9.67;;;;;;;6.66;100.00;97556.34;5072271;28;20197;-88
2021/04/17 06:53:45;;;;;;;8.57;7.63;;;;;;;6.59;100.00;97512.44;5072923;28;20221;-89
2021/04/17 06:56:12;;;;;;;18.60;13.83;;;;;;;6.56;100.00;97496.97;5072550;28;20201;-90
2021/04/17 06:58:41;;;;;;;11.53;10.33;;;;;;;6.58;100.00;97485.50;5072457;28;20256;-89
2021/04/17 07:01:08;;;;;;;8.63;7.70;;;;;;;6.59;100.00;97445.34;5072286;28;20355;-89
2021/04/17 07:03:35;;;;;;;15.97;10.63;;;;;;;6.50;100.00;97403.34;5072872;28;20200;-90
2021/04/17 07:06:02;;;;;;;24.37;15.33;;;;;;;6.65;100.00;97410.97;5072714;28;20196;-89
2021/04/17 07:08:30;;;;;;;10.67;9.60;;;;;;;6.67;100.00;97392.56;5072615;28;20205;-89
2021/04/17 07:10:58;;;;;;;11.07;8.77;;;;;;;6.76;100.00;97384.09;5072321;28;20254;-90
2021/04/17 07:13:26;;;;;;;10.17;8.90;;;;;;;6.63;100.00;97370.22;5076163;28;20197;-88
2021/04/17 07:15:54;;;;;;;23.77;19.30;;;;;;;6.80;100.00;97376.88;5076408;28;20200;-88
2021/04/17 07:18:31;;;;;;;10.20;8.17;;;;;;;6.71;100.00;97348.78;5062230;28;20193;-87
2021/04/17 07:21:00;;;;;;;7.90;7.20;;;;;;;6.70;100.00;97339.28;5074382;28;20619;-88
2021/04/17 07:23:42;;;;;;;7.03;6.33;;;;;;;6.79;100.00;97334.25;5056270;28;20702;-87
2021/04/17 07:26:10;;;;;;;6.90;6.20;;;;;;;6.88;100.00;97325.72;5056236;28;20244;-87
2021/04/17 07:28:37;;;;;;;7.50;6.80;;;;;;;6.79;100.00;97287.22;5055892;28;20618;-89
2021/04/17 07:31:04;;;;;;;7.80;6.33;;;;;;;6.97;100.00;97276.38;5055962;28;20208;-88
2021/04/17 07:33:32;;;;;;;9.00;7.33;;;;;;;6.99;100.00;97253.56;5055643;28;20632;-87
2021/04/17 07:36:00;;;;;;;11.23;10.03;;;;;;;7.10;100.00;97225.69;5055500;28;20296;-88
2021/04/17 07:38:33;;;;;;;12.43;7.97;;;;;;;6.85;100.00;97173.56;5055688;28;20194;-86
2021/04/17 07:41:05;;;;;;;11.03;8.30;;;;;;;6.97;100.00;97171.84;5055109;28;20190;-87
2021/04/17 07:43:48;;;;;;;9.77;8.57;;;;;;;7.07;100.00;97125.75;5055019;28;20664;-88
2021/04/17 07:46:15;;;;;;;11.80;9.63;;;;;;;7.12;100.00;97100.09;5055422;28;20193;-88
2021/04/17 07:48:42;;;;;;;26.70;19.30;;;;;;;7.16;100.00;97093.69;5069153;28;20692;-89
2021/04/17 07:51:09;;;;;;;8.10;6.77;;;;;;;7.33;100.00;97080.13;5075742;28;20634;-89
2021/04/17 07:53:37;;;;;;;9.63;8.60;;;;;;;7.33;100.00;97046.16;5075310;28;20276;-89
2021/04/17 07:56:27;;;;;;;13.80;9.47;;;;;;;7.22;100.00;97000.88;5075449;28;20581;-89
2021/04/17 07:58:56;;;;;;;11.23;8.37;;;;;;;7.25;100.00;96990.19;5059102;28;20212;-88
2021/04/17 08:01:24;;;;;;;12.07;10.40;;;;;;;7.24;100.00;96973.66;5055254;28;20769;-89
2021/04/17 08:03:55;;;;;;;11.57;9.33;;;;;;;7.50;100.00;96949.84;5055304;28;20197;-88
2021/04/17 08:06:22;;;;;;;8.60;7.77;;;;;;;7.41;100.00;96903.50;5055515;28;20708;-89
2021/04/17 08:08:51;;;;;;;8.07;6.67;;;;;;;7.37;100.00;96908.97;5057153;28;20266;-89
2021/04/17 08:11:20;;;;;;;8.57;6.93;;;;;;;7.25;100.00;96902.13;5075043;28;20288;-89
2021/04/17 08:13:49;;;;;;;6.93;6.30;;;;;;;7.51;100.00;96904.41;5074824;28;20221;-89
2021/04/17 08:16:18;;;;;;;6.60;5.80;;;;;;;7.49;100.00;96891.47;5075404;28;20193;-88
2021/04/17 08:18:46;;;;;;;5.63;5.13;;;;;;;7.46;100.00;96849.03;5074514;28;20331;-89
2021/04/17 08:21:15;;;;;;;7.00;5.83;;;;;;;7.54;100.00;96829.13;5074922;28;20270;-89
2021/04/17 08:23:44;;;;;;;12.03;9.43;;;;;;;7.67;100.00;96807.22;5074455;28;20257;-88
2021/04/17 08:26:12;;;;;;;13.40;11.93;;;;;;;7.75;100.00;96784.66;5074783;28;20232;-89
2021/04/17 08:28:44;;;;;;;6.53;5.93;;;;;;;7.66;100.00;96776.78;5074776;28;20708;-89
2021/04/17 08:31:27;;;;;;;7.30;6.50;;;;;;;7.61;100.00;96737.91;5075149;28;20645;-88
2021/04/17 08:34:21;;;;;;;8.43;7.07;;;;;;;7.36;100.00;96726.88;5074820;28;20212;-88
2021/04/17 08:36:49;;;;;;;7.17;6.47;;;;;;;7.34;100.00;96699.19;5028194;28;20288;-89
2021/04/17 08:39:42;;;;;;;6.77;6.07;;;;;;;7.29;100.00;96699.56;5074673;28;20575;-88
2021/04/17 08:42:10;;;;;;;5.07;4.67;;;;;;;7.30;100.00;96716.91;5074651;28;20701;-87
2021/04/17 08:44:40;;;;;;;9.20;7.37;;;;;;;7.35;100.00;96688.63;5074256;28;20338;-88
2021/04/17 08:47:09;;;;;;;14.33;10.60;;;;;;;7.58;100.00;96717.22;5074327;28;20193;-88
2021/04/17 08:49:38;;;;;;;9.80;8.33;;;;;;;7.44;100.00;96673.09;5074127;28;20760;-89
2021/04/17 08:52:20;;;;;;;13.60;9.90;;;;;;;7.50;100.00;96631.56;5074176;28;20257;-88
2021/04/17 08:55:08;;;;;;;7.40;6.60;;;;;;;7.56;100.00;96635.47;5074104;28;20209;-88
2021/04/17 08:57:36;;;;;;;6.73;6.07;;;;;;;7.67;100.00;96592.69;5074045;28;20196;-89
2021/04/17 09:00:06;;;;;;;5.53;5.03;;;;;;;7.78;100.00;96574.25;5073864;28;20193;-89
2021/04/17 09:02:45;;;;;;;5.57;4.90;;;;;;;7.93;100.00;96541.53;5074484;28;20178;-89
2021/04/17 09:05:17;;;;;;;5.90;4.67;;;;;;;7.83;100.00;96517.13;5074165;28;20181;-88
2021/04/17 09:07:46;;;;;;;5.93;5.40;;;;;;;7.95;100.00;96508.19;5074119;28;20181;-88
2021/04/17 09:10:37;;;;;;;8.63;7.07;;;;;;;7.78;100.00;96475.66;5073897;28;20231;-88
2021/04/17 09:13:31;;;;;;;6.77;6.17;;;;;;;7.81;100.00;96472.75;5054283;28;20201;-89
2021/04/17 09:15:59;;;;;;;5.63;4.87;;;;;;;7.90;100.00;96473.75;5073775;28;20189;-88
2021/04/17 09:18:45;;;;;;;5.57;5.07;;;;;;;8.03;100.00;96492.59;5073580;28;20232;-88
2021/04/17 09:21:36;;;;;;;8.13;7.33;;;;;;;7.86;100.00;96452.25;5072621;28;20236;-85
2021/04/17 09:24:24;;;;;;;5.60;4.80;;;;;;;7.78;100.00;96427.72;5073420;28;20200;-86
2021/04/17 09:26:51;;;;;;;7.17;6.23;;;;;;;7.72;100.00;96447.41;5073133;28;20186;-85
2021/04/17 09:29:26;;;;;;;16.90;11.87;;;;;;;7.79;100.00;96468.63;5072847;28;20232;-87
2021/04/17 09:31:56;;;;;;;13.87;9.57;;;;;;;7.99;100.00;96498.25;5073518;28;20197;-89
2021/04/17 09:34:25;;;;;;;9.93;7.57;;;;;;;7.96;100.00;96480.22;5072750;28;20213;-89
2021/04/17 09:36:51;;;;;;;11.40;9.47;;;;;;;7.95;100.00;96439.31;5073491;28;20204;-89
2021/04/17 09:39:44;;;;;;;14.07;11.20;;;;;;;7.93;100.00;96421.13;5073509;28;20207;-89
2021/04/17 09:42:11;;;;;;;24.23;18.00;;;;;;;8.14;100.00;96426.22;5073380;28;20696;-89
2021/04/17 09:44:46;;;;;;;11.57;9.03;;;;;;;8.12;100.00;96401.97;5073059;28;20194;-89
2021/04/17 09:47:15;;;;;;;11.43;10.23;;;;;;;8.21;100.00;96368.84;5073009;28;20291;-89
2021/04/17 09:49:44;;;;;;;16.40;14.63;;;;;;;8.29;100.00;96354.09;5073220;28;20201;-88
2021/04/17 09:52:17;;;;;;;17.50;15.63;;;;;;;8.41;100.00;96367.88;5073493;28;20613;-89
2021/04/17 09:54:44;;;;;;;10.90;9.73;;;;;;;8.49;100.00;96375.03;5072771;28;20300;-92
2021/04/17 09:57:11;;;;;;;6.73;6.20;;;;;;;8.71;100.00;96373.84;5072921;28;20197;-89
2021/04/17 09:59:51;;;;;;;6.57;5.50;;;;;;;8.64;100.00;96338.72;5072601;28;20619;-89
2021/04/17 10:02:17;;;;;;;4.90;4.50;;;;;;;8.68;100.00;96285.84;5072829;28;20200;-89
2021/04/17 10:04:50;;;;;;;11.30;6.97;;;;;;;8.82;100.00;96295.84;5072501;28;20242;-88
2021/04/17 10:07:17;;;;;;;6.50;4.93;;;;;;;8.98;100.00;96273.41;5072869;28;20292;-89
2021/04/17 10:09:58;;;;;;;6.53;5.83;;;;;;;9.13;100.00;96258.81;5073139;28;20594;-89
2021/04/17 10:12:25;;;;;;;5.20;4.77;;;;;;;9.32;100.00;96223.75;5072713;28;20185;-89
2021/04/17 10:14:52;;;;;;;8.27;5.70;;;;;;;9.56;100.00;96194.25;5072418;28;20312;-88
2021/04/17 10:17:19;;;;;;;5.77;5.27;;;;;;;9.49;100.00;96253.53;5072705;28;20197;-89
2021/04/17 10:19:46;;;;;;;6.33;5.23;;;;;;;9.57;100.00;96184.56;5072816;28;20309;-89
2021/04/17 10:22:20;;;;;;;9.97;6.93;;;;;;;9.61;100.00;96133.44;5077958;28;20197;-92
2021/04/17 10:24:47;;;;;;;5.53;4.43;;;;;;;9.52;100.00;96099.28;5074416;28;20276;-91
2021/04/17 10:27:15;;;;;;;5.70;5.10;;;;;;;9.79;100.00;96104.47;5069463;28;20292;-87
2021/04/17 10:29:44;;;;;;;6.00;5.40;;;;;;;10.01;100.00;96124.94;5050455;28;20198;-87
2021/04/17 10:32:14;;;;;;;5.30;4.77;;;;;;;9.88;100.00;96078.09;5058485;28;20310;-91
2021/04/17 10:34:42;;;;;;;5.23;4.83;;;;;;;9.94;100.00;96095.84;5058224;28;20225;-85
2021/04/17 10:37:12;;;;;;;10.40;4.43;;;;;;;9.73;100.00;96059.53;5053884;28;20265;-90
2021/04/17 10:39:57;;;;;;;4.83;4.27;;;;;;;9.83;100.00;96063.81;5052989;28;20193;-91
2021/04/17 10:42:24;;;;;;;6.67;5.30;;;;;;;9.62;100.00;96054.53;5052744;28;20196;-90
2021/04/17 10:44:56;;;;;;;5.93;5.43;;;;;;;9.73;100.00;96077.91;5052501;28;20284;-90
2021/04/17 10:47:23;;;;;;;5.70;4.63;;;;;;;9.49;100.00;96065.50;5052555;28;20194;-90
2021/04/17 10:49:49;;;;;;;6.63;5.90;;;;;;;9.66;100.00;96076.84;5052333;28;20335;-90
2021/04/17 10:52:29;;;;;;;7.00;5.50;;;;;;;9.79;100.00;96062.47;5052366;28;20189;-91
2021/04/17 10:54:57;;;;;;;5.87;5.27;;;;;;;9.65;100.00;96035.84;5052688;28;20689;-90
2021/04/17 10:57:25;;;;;;;7.93;6.17;;;;;;;9.80;100.00;96040.50;5052486;28;20259;-90
2021/04/17 10:59:57;;;;;;;9.60;6.83;;;;;;;10.00;100.00;96055.00;5052239;28;20762;-90
2021/04/17 11:02:35;;;;;;;5.97;5.10;;;;;;;9.68;100.00;96006.69;5058892;28;20308;-90
2021/04/17 11:05:05;;;;;;;4.90;4.40;;;;;;;9.60;100.00;96016.34;5052373;28;20186;-90
2021/04/17 11:07:33;;;;;;;6.80;6.13;;;;;;;9.85;100.00;96031.19;5052428;28;20229;-90
2021/04/17 11:10:02;;;;;;;11.67;9.20;;;;;;;9.74;100.00;96039.34;5061182;28;20201;-90
2021/04/17 11:12:30;;;;;;;11.93;10.03;;;;;;;9.90;100.00;96038.56;5072508;28;20292;-91
2021/04/17 11:15:18;;;;;;;32.87;20.73;;;;;;;10.16;100.00;96043.72;5072294;28;20221;-91
2021/04/17 11:18:05;;;;;;;30.10;22.30;;;;;;;10.23;100.00;95989.56;5072690;28;20231;-90
2021/04/17 11:20:31;;;;;;;30.73;18.83;;;;;;;10.13;100.00;95939.00;5072095;28;20264;-90
2021/04/17 11:22:59;;;;;;;37.63;25.37;;;;;;;10.43;100.00;95961.19;5072599;28;20284;-89
2021/04/17 11:25:27;;;;;;;19.83;14.80;;;;;;;10.15;100.00;95944.91;5072525;28;20189;-90
2021/04/17 11:27:54;;;;;;;39.37;23.27;;;;;;;10.06;100.00;95977.41;5072699;28;20198;-90
2021/04/17 11:30:21;;;;;;;13.20;10.00;;;;;;;10.14;100.00;95975.59;5072341;28;20283;-90
2021/04/17 11:32:47;;;;;;;16.77;14.10;;;;;;;10.16;100.00;95970.19;5072217;28;20688;-90
2021/04/17 11:35:16;;;;;;;8.87;7.93;;;;;;;10.27;100.00;95930.50;5072093;28;20796;-90
2021/04/17 11:37:42;;;;;;;11.70;10.50;;;;;;;10.70;100.00;95934.56;5072077;28;20237;-90